sensor_id;sensor_type;location;lat;lon;timestamp;P1;durP1;ratioP1;P2;durP2;ratioP2
15667;SDS011;7934;48.710;9.024;2023-04-06T00:00:03;16.65;;;11.45;;
15667;SDS011;7934;48.710;9.024;2023-04-06T00:02:33;13.45;;;11.85;;
15667;SDS011;7934;48.710;9.024;2023-04-06T00:05:01;15.67;;;11.70;;
15667;SDS011;7934;48.710;9.024;2023-04-06T00:07:34;14.97;;;11.57;;
15667;SDS011;7934;48.710;9.024;2023-04-06T00:10:03;14.68;;;11.43;;
15667;SDS011;7934;48.710;9.024;2023-04-06T00:12:33;14.57;;;11.25;;
15667;SDS011;7934;48.710;9.024;2023-04-06T00:15:00;16.30;;;11.85;;
15667;SDS011;7934;48.710;9.024;2023-04-06T00:17:29;14.50;;;11.10;;
15667;SDS011;7934;48.710;9.024;2023-04-06T00:19:57;14.38;;;11.15;;
15667;SDS011;7934;48.710;9.024;2023-04-06T00:22:24;12.02;;;10.82;;
15667;SDS011;7934;48.710;9.024;2023-04-06T00:24:53;12.40;;;10.37;;
15667;SDS011;7934;48.710;9.024;2023-04-06T00:30:23;14.48;;;11.30;;
15667;SDS011;7934;48.710;9.024;2023-04-06T00:32:59;12.60;;;11.07;;
15667;SDS011;7934;48.710;9.024;2023-04-06T00:35:44;12.13;;;10.83;;
15667;SDS011;7934;48.710;9.024;2023-04-06T00:38:11;13.63;;;11.17;;
15667;SDS011;7934;48.710;9.024;2023-04-06T00:40:38;14.50;;;11.27;;
15667;SDS011;7934;48.710;9.024;2023-04-06T00:46:16;13.10;;;11.20;;
15667;SDS011;7934;48.710;9.024;2023-04-06T00:48:43;15.07;;;11.60;;
15667;SDS011;7934;48.710;9.024;2023-04-06T00:51:13;13.70;;;11.20;;
15667;SDS011;7934;48.710;9.024;2023-04-06T00:53:47;14.63;;;11.07;;
15667;SDS011;7934;48.710;9.024;2023-04-06T00:56:14;15.32;;;11.43;;
15667;SDS011;7934;48.710;9.024;2023-04-06T01:04:22;14.07;;;11.68;;
15667;SDS011;7934;48.710;9.024;2023-04-06T01:07:01;13.63;;;11.83;;
15667;SDS011;7934;48.710;9.024;2023-04-06T01:13:13;13.13;;;11.25;;
15667;SDS011;7934;48.710;9.024;2023-04-06T01:15:46;14.57;;;11.73;;
15667;SDS011;7934;48.710;9.024;2023-04-06T01:24:37;13.50;;;11.25;;
15667;SDS011;7934;48.710;9.024;2023-04-06T01:27:18;15.18;;;10.93;;
15667;SDS011;7934;48.710;9.024;2023-04-06T01:30:08;13.75;;;10.75;;
15667;SDS011;7934;48.710;9.024;2023-04-06T01:42:38;12.25;;;10.70;;
15667;SDS011;7934;48.710;9.024;2023-04-06T01:54:12;15.52;;;12.40;;
15667;SDS011;7934;48.710;9.024;2023-04-06T01:58:01;13.50;;;11.80;;
15667;SDS011;7934;48.710;9.024;2023-04-06T02:11:02;14.30;;;11.90;;
15667;SDS011;7934;48.710;9.024;2023-04-06T05:00:50;17.63;;;14.20;;
15667;SDS011;7934;48.710;9.024;2023-04-06T05:19:37;15.52;;;13.90;;
15667;SDS011;7934;48.710;9.024;2023-04-06T05:30:30;16.80;;;13.73;;
15667;SDS011;7934;48.710;9.024;2023-04-06T05:39:21;16.58;;;13.07;;
15667;SDS011;7934;48.710;9.024;2023-04-06T05:41:53;18.08;;;13.80;;
15667;SDS011;7934;48.710;9.024;2023-04-06T05:44:23;17.08;;;13.70;;
15667;SDS011;7934;48.710;9.024;2023-04-06T05:46:52;18.27;;;13.40;;
15667;SDS011;7934;48.710;9.024;2023-04-06T05:49:20;14.90;;;12.70;;
15667;SDS011;7934;48.710;9.024;2023-04-06T05:51:56;18.60;;;13.10;;
15667;SDS011;7934;48.710;9.024;2023-04-06T05:54:39;16.75;;;12.82;;
15667;SDS011;7934;48.710;9.024;2023-04-06T06:09:42;18.00;;;13.80;;
15667;SDS011;7934;48.710;9.024;2023-04-06T06:15:25;15.95;;;12.23;;
15667;SDS011;7934;48.710;9.024;2023-04-06T06:18:15;15.25;;;13.23;;
15667;SDS011;7934;48.710;9.024;2023-04-06T06:20:46;18.65;;;12.30;;
15667;SDS011;7934;48.710;9.024;2023-04-06T06:23:17;14.38;;;11.85;;
15667;SDS011;7934;48.710;9.024;2023-04-06T06:26:01;15.63;;;11.65;;
15667;SDS011;7934;48.710;9.024;2023-04-06T06:28:59;17.23;;;11.15;;
15667;SDS011;7934;48.710;9.024;2023-04-06T06:34:10;15.35;;;11.65;;
15667;SDS011;7934;48.710;9.024;2023-04-06T06:38:57;14.35;;;11.82;;
15667;SDS011;7934;48.710;9.024;2023-04-06T06:49:19;15.13;;;11.38;;
15667;SDS011;7934;48.710;9.024;2023-04-06T07:57:29;11.43;;;9.25;;
15667;SDS011;7934;48.710;9.024;2023-04-06T08:00:02;10.10;;;8.77;;
15667;SDS011;7934;48.710;9.024;2023-04-06T08:03:00;10.45;;;9.38;;
15667;SDS011;7934;48.710;9.024;2023-04-06T08:05:26;10.55;;;9.45;;
15667;SDS011;7934;48.710;9.024;2023-04-06T08:07:53;11.15;;;9.23;;
15667;SDS011;7934;48.710;9.024;2023-04-06T08:10:20;11.13;;;8.98;;
15667;SDS011;7934;48.710;9.024;2023-04-06T08:12:51;12.48;;;8.65;;
15667;SDS011;7934;48.710;9.024;2023-04-06T08:18:48;11.85;;;8.75;;
15667;SDS011;7934;48.710;9.024;2023-04-06T08:24:04;11.02;;;8.73;;
15667;SDS011;7934;48.710;9.024;2023-04-06T08:26:46;9.88;;;8.52;;
15667;SDS011;7934;48.710;9.024;2023-04-06T08:29:51;10.35;;;8.45;;
15667;SDS011;7934;48.710;9.024;2023-04-06T08:32:29;10.73;;;8.33;;
15667;SDS011;7934;48.710;9.024;2023-04-06T08:38:06;10.15;;;8.07;;
15667;SDS011;7934;48.710;9.024;2023-04-06T08:43:49;11.20;;;8.50;;
15667;SDS011;7934;48.710;9.024;2023-04-06T08:49:43;9.65;;;8.85;;
15667;SDS011;7934;48.710;9.024;2023-04-06T08:52:29;10.45;;;9.18;;
15667;SDS011;7934;48.710;9.024;2023-04-06T09:23:32;7.93;;;7.23;;
15667;SDS011;7934;48.710;9.024;2023-04-06T09:32:17;7.30;;;6.63;;
15667;SDS011;7934;48.710;9.024;2023-04-06T09:37:56;7.30;;;6.60;;
15667;SDS011;7934;48.710;9.024;2023-04-06T09:53:11;6.47;;;5.95;;
15667;SDS011;7934;48.710;9.024;2023-04-06T09:56:18;6.53;;;5.93;;
15667;SDS011;7934;48.710;9.024;2023-04-06T10:04:43;7.38;;;5.57;;
15667;SDS011;7934;48.710;9.024;2023-04-06T10:07:29;6.65;;;5.90;;
15667;SDS011;7934;48.710;9.024;2023-04-06T10:18:55;6.22;;;5.78;;
15667;SDS011;7934;48.710;9.024;2023-04-06T10:24:26;6.35;;;5.78;;
15667;SDS011;7934;48.710;9.024;2023-04-06T10:33:15;5.80;;;5.30;;
15667;SDS011;7934;48.710;9.024;2023-04-06T10:39:13;5.80;;;5.40;;
15667;SDS011;7934;48.710;9.024;2023-04-06T10:45:06;6.10;;;5.60;;
15667;SDS011;7934;48.710;9.024;2023-04-06T10:47:56;5.95;;;5.55;;
15667;SDS011;7934;48.710;9.024;2023-04-06T10:56:46;5.73;;;5.30;;
15667;SDS011;7934;48.710;9.024;2023-04-06T11:02:21;5.57;;;5.18;;
15667;SDS011;7934;48.710;9.024;2023-04-06T11:05:01;5.57;;;5.18;;
15667;SDS011;7934;48.710;9.024;2023-04-06T11:17:01;6.10;;;5.60;;
15667;SDS011;7934;48.710;9.024;2023-04-06T11:20:02;5.43;;;4.93;;
15667;SDS011;7934;48.710;9.024;2023-04-06T11:22:34;6.28;;;5.70;;
15667;SDS011;7934;48.710;9.024;2023-04-06T11:25:11;5.80;;;5.40;;
15667;SDS011;7934;48.710;9.024;2023-04-06T11:27:55;5.47;;;5.05;;
15667;SDS011;7934;48.710;9.024;2023-04-06T11:30:26;5.07;;;4.67;;
15667;SDS011;7934;48.710;9.024;2023-04-06T11:39:47;5.93;;;5.43;;
15667;SDS011;7934;48.710;9.024;2023-04-06T12:04:27;5.97;;;5.53;;
15667;SDS011;7934;48.710;9.024;2023-04-06T12:07:09;6.47;;;5.97;;
15667;SDS011;7934;48.710;9.024;2023-04-06T12:09:43;6.40;;;5.90;;
15667;SDS011;7934;48.710;9.024;2023-04-06T12:13:17;6.20;;;5.63;;
15667;SDS011;7934;48.710;9.024;2023-04-06T12:15:24;6.53;;;6.03;;
15667;SDS011;7934;48.710;9.024;2023-04-06T12:18:22;6.50;;;6.00;;
15667;SDS011;7934;48.710;9.024;2023-04-06T12:20:47;6.05;;;5.47;;
15667;SDS011;7934;48.710;9.024;2023-04-06T12:23:21;5.82;;;5.40;;
15667;SDS011;7934;48.710;9.024;2023-04-06T12:25:48;6.72;;;6.00;;
15667;SDS011;7934;48.710;9.024;2023-04-06T12:31:21;6.37;;;5.87;;
15667;SDS011;7934;48.710;9.024;2023-04-06T12:33:56;5.90;;;5.50;;
15667;SDS011;7934;48.710;9.024;2023-04-06T12:48:18;6.50;;;5.90;;
15667;SDS011;7934;48.710;9.024;2023-04-06T12:50:53;6.35;;;5.75;;
15667;SDS011;7934;48.710;9.024;2023-04-06T12:53:26;7.35;;;6.50;;
15667;SDS011;7934;48.710;9.024;2023-04-06T12:56:14;6.80;;;6.18;;
15667;SDS011;7934;48.710;9.024;2023-04-06T12:58:45;7.22;;;6.63;;
15667;SDS011;7934;48.710;9.024;2023-04-06T13:03:58;6.30;;;5.80;;
15667;SDS011;7934;48.710;9.024;2023-04-06T13:06:26;6.00;;;5.50;;
15667;SDS011;7934;48.710;9.024;2023-04-06T13:08:54;6.40;;;5.80;;
15667;SDS011;7934;48.710;9.024;2023-04-06T13:11:52;5.53;;;5.13;;
15667;SDS011;7934;48.710;9.024;2023-04-06T13:17:08;4.93;;;4.45;;
15667;SDS011;7934;48.710;9.024;2023-04-06T13:19:52;5.63;;;5.13;;
15667;SDS011;7934;48.710;9.024;2023-04-06T13:22:31;5.13;;;4.73;;
15667;SDS011;7934;48.710;9.024;2023-04-06T13:25:17;5.32;;;4.93;;
15667;SDS011;7934;48.710;9.024;2023-04-06T13:28:17;6.20;;;5.40;;
15667;SDS011;7934;48.710;9.024;2023-04-06T13:30:42;5.53;;;5.13;;
15667;SDS011;7934;48.710;9.024;2023-04-06T13:33:12;5.38;;;5.00;;
15667;SDS011;7934;48.710;9.024;2023-04-06T13:35:47;5.32;;;4.93;;
15667;SDS011;7934;48.710;9.024;2023-04-06T13:38:17;5.57;;;5.13;;
15667;SDS011;7934;48.710;9.024;2023-04-06T13:41:06;5.93;;;5.33;;
15667;SDS011;7934;48.710;9.024;2023-04-06T13:46:43;5.82;;;5.22;;
15667;SDS011;7934;48.710;9.024;2023-04-06T13:49:26;5.13;;;4.73;;
15667;SDS011;7934;48.710;9.024;2023-04-06T14:16:28;5.03;;;4.72;;
15667;SDS011;7934;48.710;9.024;2023-04-06T14:19:05;6.00;;;5.50;;
15667;SDS011;7934;48.710;9.024;2023-04-06T14:21:38;5.10;;;4.80;;
15667;SDS011;7934;48.710;9.024;2023-04-06T14:24:11;6.15;;;5.65;;
15667;SDS011;7934;48.710;9.024;2023-04-06T14:26:42;6.65;;;6.05;;
15667;SDS011;7934;48.710;9.024;2023-04-06T14:29:09;6.65;;;6.10;;
15667;SDS011;7934;48.710;9.024;2023-04-06T14:31:38;6.70;;;6.10;;
15667;SDS011;7934;48.710;9.024;2023-04-06T14:34:05;5.85;;;5.45;;
15667;SDS011;7934;48.710;9.024;2023-04-06T14:37:51;6.13;;;5.20;;
15667;SDS011;7934;48.710;9.024;2023-04-06T14:39:51;5.85;;;5.30;;
15667;SDS011;7934;48.710;9.024;2023-04-06T14:46:13;7.65;;;5.80;;
15667;SDS011;7934;48.710;9.024;2023-04-06T14:49:30;5.10;;;4.70;;
15667;SDS011;7934;48.710;9.024;2023-04-06T14:52:00;6.35;;;5.82;;
15667;SDS011;7934;48.710;9.024;2023-04-06T14:54:28;6.10;;;5.60;;
15667;SDS011;7934;48.710;9.024;2023-04-06T14:56:55;6.88;;;5.22;;
15667;SDS011;7934;48.710;9.024;2023-04-06T14:59:22;6.18;;;5.00;;
15667;SDS011;7934;48.710;9.024;2023-04-06T15:01:50;8.85;;;5.65;;
15667;SDS011;7934;48.710;9.024;2023-04-06T15:04:31;5.75;;;5.25;;
15667;SDS011;7934;48.710;9.024;2023-04-06T15:07:01;5.40;;;4.90;;
15667;SDS011;7934;48.710;9.024;2023-04-06T15:09:28;6.65;;;5.60;;
15667;SDS011;7934;48.710;9.024;2023-04-06T15:11:55;5.68;;;5.13;;
15667;SDS011;7934;48.710;9.024;2023-04-06T15:14:24;6.03;;;5.50;;
15667;SDS011;7934;48.710;9.024;2023-04-06T15:16:55;6.70;;;5.65;;
15667;SDS011;7934;48.710;9.024;2023-04-06T15:19:28;6.40;;;5.00;;
15667;SDS011;7934;48.710;9.024;2023-04-06T15:21:56;5.40;;;4.90;;
15667;SDS011;7934;48.710;9.024;2023-04-06T15:24:24;5.07;;;4.60;;
15667;SDS011;7934;48.710;9.024;2023-04-06T15:26:51;5.95;;;5.20;;
15667;SDS011;7934;48.710;9.024;2023-04-06T15:29:18;5.65;;;5.13;;
15667;SDS011;7934;48.710;9.024;2023-04-06T15:31:45;5.75;;;5.20;;
15667;SDS011;7934;48.710;9.024;2023-04-06T15:34:12;7.60;;;4.88;;
15667;SDS011;7934;48.710;9.024;2023-04-06T15:36:45;6.20;;;5.50;;
15667;SDS011;7934;48.710;9.024;2023-04-06T15:46:02;5.83;;;4.90;;
15667;SDS011;7934;48.710;9.024;2023-04-06T15:52:30;5.80;;;5.20;;
15667;SDS011;7934;48.710;9.024;2023-04-06T15:56:15;5.50;;;5.00;;
15667;SDS011;7934;48.710;9.024;2023-04-06T16:04:10;9.53;;;5.50;;
15667;SDS011;7934;48.710;9.024;2023-04-06T16:57:49;8.50;;;7.20;;
15667;SDS011;7934;48.710;9.024;2023-04-06T17:00:58;7.68;;;6.93;;
15667;SDS011;7934;48.710;9.024;2023-04-06T17:09:34;10.32;;;6.60;;
15667;SDS011;7934;48.710;9.024;2023-04-06T17:12:02;7.22;;;6.40;;
15667;SDS011;7934;48.710;9.024;2023-04-06T17:17:25;8.05;;;6.43;;
15667;SDS011;7934;48.710;9.024;2023-04-06T17:19:56;7.15;;;6.43;;
15667;SDS011;7934;48.710;9.024;2023-04-06T17:22:33;9.30;;;5.93;;
15667;SDS011;7934;48.710;9.024;2023-04-06T17:25:03;7.88;;;5.80;;
15667;SDS011;7934;48.710;9.024;2023-04-06T17:28:12;7.43;;;5.90;;
15667;SDS011;7934;48.710;9.024;2023-04-06T17:30:38;6.53;;;5.13;;
15667;SDS011;7934;48.710;9.024;2023-04-06T17:33:11;6.03;;;5.43;;
15667;SDS011;7934;48.710;9.024;2023-04-06T17:35:40;6.07;;;5.18;;
15667;SDS011;7934;48.710;9.024;2023-04-06T17:38:08;7.35;;;5.05;;
15667;SDS011;7934;48.710;9.024;2023-04-06T17:40:36;5.70;;;5.10;;
15667;SDS011;7934;48.710;9.024;2023-04-06T17:43:20;5.43;;;4.78;;
15667;SDS011;7934;48.710;9.024;2023-04-06T17:45:47;5.20;;;4.70;;
15667;SDS011;7934;48.710;9.024;2023-04-06T17:48:20;5.68;;;5.03;;
15667;SDS011;7934;48.710;9.024;2023-04-06T17:50:50;5.80;;;4.90;;
15667;SDS011;7934;48.710;9.024;2023-04-06T17:54:02;7.65;;;4.90;;
15667;SDS011;7934;48.710;9.024;2023-04-06T17:56:14;5.72;;;5.18;;
15667;SDS011;7934;48.710;9.024;2023-04-06T17:58:58;5.82;;;5.00;;
15667;SDS011;7934;48.710;9.024;2023-04-06T18:01:54;5.43;;;4.90;;
15667;SDS011;7934;48.710;9.024;2023-04-06T18:07:50;6.60;;;5.30;;
15667;SDS011;7934;48.710;9.024;2023-04-06T18:12:54;6.65;;;5.22;;
15667;SDS011;7934;48.710;9.024;2023-04-06T18:15:22;9.30;;;5.47;;
15667;SDS011;7934;48.710;9.024;2023-04-06T18:17:49;7.22;;;5.60;;
15667;SDS011;7934;48.710;9.024;2023-04-06T18:20:16;7.95;;;5.68;;
15667;SDS011;7934;48.710;9.024;2023-04-06T18:22:44;6.20;;;5.50;;
15667;SDS011;7934;48.710;9.024;2023-04-06T18:25:12;6.10;;;5.15;;
15667;SDS011;7934;48.710;9.024;2023-04-06T18:27:40;9.25;;;6.22;;
15667;SDS011;7934;48.710;9.024;2023-04-06T18:30:07;8.23;;;5.97;;
15667;SDS011;7934;48.710;9.024;2023-04-06T18:32:37;8.55;;;6.25;;
15667;SDS011;7934;48.710;9.024;2023-04-06T18:35:04;7.93;;;6.27;;
15667;SDS011;7934;48.710;9.024;2023-04-06T18:37:36;5.43;;;4.90;;
15667;SDS011;7934;48.710;9.024;2023-04-06T18:40:03;4.97;;;4.47;;
15667;SDS011;7934;48.710;9.024;2023-04-06T18:42:32;6.72;;;5.03;;
15667;SDS011;7934;48.710;9.024;2023-04-06T18:45:15;6.65;;;5.18;;
15667;SDS011;7934;48.710;9.024;2023-04-06T18:48:11;8.98;;;4.30;;
15667;SDS011;7934;48.710;9.024;2023-04-06T18:50:38;3.92;;;3.53;;
15667;SDS011;7934;48.710;9.024;2023-04-06T18:53:06;4.03;;;3.53;;
15667;SDS011;7934;48.710;9.024;2023-04-06T18:55:33;3.50;;;3.30;;
15667;SDS011;7934;48.710;9.024;2023-04-06T18:58:06;4.07;;;3.47;;
15667;SDS011;7934;48.710;9.024;2023-04-06T19:00:47;3.33;;;3.03;;
15667;SDS011;7934;48.710;9.024;2023-04-06T19:03:15;3.00;;;2.80;;
15667;SDS011;7934;48.710;9.024;2023-04-06T19:05:45;3.08;;;2.88;;
15667;SDS011;7934;48.710;9.024;2023-04-06T19:08:18;3.22;;;2.92;;
15667;SDS011;7934;48.710;9.024;2023-04-06T19:10:45;4.22;;;3.92;;
15667;SDS011;7934;48.710;9.024;2023-04-06T19:13:17;4.05;;;3.85;;
15667;SDS011;7934;48.710;9.024;2023-04-06T19:15:46;2.95;;;2.75;;
15667;SDS011;7934;48.710;9.024;2023-04-06T19:18:13;3.47;;;3.17;;
15667;SDS011;7934;48.710;9.024;2023-04-06T19:20:40;3.40;;;3.10;;
15667;SDS011;7934;48.710;9.024;2023-04-06T19:23:07;3.75;;;3.45;;
15667;SDS011;7934;48.710;9.024;2023-04-06T19:25:35;4.38;;;3.00;;
15667;SDS011;7934;48.710;9.024;2023-04-06T19:28:02;3.85;;;2.53;;
15667;SDS011;7934;48.710;9.024;2023-04-06T19:30:30;2.33;;;2.22;;
15667;SDS011;7934;48.710;9.024;2023-04-06T19:32:58;2.40;;;2.28;;
15667;SDS011;7934;48.710;9.024;2023-04-06T19:35:25;5.05;;;3.58;;
15667;SDS011;7934;48.710;9.024;2023-04-06T19:37:52;3.80;;;3.20;;
15667;SDS011;7934;48.710;9.024;2023-04-06T19:40:19;3.15;;;2.95;;
15667;SDS011;7934;48.710;9.024;2023-04-06T19:42:46;4.70;;;3.88;;
15667;SDS011;7934;48.710;9.024;2023-04-06T19:45:14;4.55;;;3.60;;
15667;SDS011;7934;48.710;9.024;2023-04-06T19:47:42;3.72;;;3.42;;
15667;SDS011;7934;48.710;9.024;2023-04-06T19:50:09;4.20;;;3.90;;
15667;SDS011;7934;48.710;9.024;2023-04-06T19:52:40;4.38;;;3.83;;
15667;SDS011;7934;48.710;9.024;2023-04-06T19:55:07;4.25;;;3.70;;
15667;SDS011;7934;48.710;9.024;2023-04-06T19:57:35;4.35;;;4.05;;
15667;SDS011;7934;48.710;9.024;2023-04-06T20:00:02;4.43;;;4.03;;
15667;SDS011;7934;48.710;9.024;2023-04-06T20:02:30;4.93;;;4.40;;
15667;SDS011;7934;48.710;9.024;2023-04-06T20:04:58;5.55;;;4.80;;
15667;SDS011;7934;48.710;9.024;2023-04-06T20:07:28;5.43;;;4.93;;
15667;SDS011;7934;48.710;9.024;2023-04-06T20:09:56;5.55;;;4.50;;
15667;SDS011;7934;48.710;9.024;2023-04-06T20:12:23;8.07;;;4.85;;
15667;SDS011;7934;48.710;9.024;2023-04-06T20:14:50;6.30;;;5.25;;
15667;SDS011;7934;48.710;9.024;2023-04-06T20:17:17;5.63;;;4.85;;
15667;SDS011;7934;48.710;9.024;2023-04-06T20:19:46;6.30;;;5.35;;
15667;SDS011;7934;48.710;9.024;2023-04-06T20:22:15;5.82;;;5.32;;
15667;SDS011;7934;48.710;9.024;2023-04-06T20:24:42;6.95;;;5.82;;
15667;SDS011;7934;48.710;9.024;2023-04-06T20:27:09;6.53;;;5.95;;
15667;SDS011;7934;48.710;9.024;2023-04-06T20:29:36;6.65;;;6.00;;
15667;SDS011;7934;48.710;9.024;2023-04-06T20:32:03;6.97;;;6.22;;
15667;SDS011;7934;48.710;9.024;2023-04-06T20:34:31;6.90;;;6.25;;
15667;SDS011;7934;48.710;9.024;2023-04-06T20:36:58;7.15;;;6.45;;
15667;SDS011;7934;48.710;9.024;2023-04-06T20:39:30;7.85;;;7.05;;
15667;SDS011;7934;48.710;9.024;2023-04-06T20:41:57;7.53;;;6.82;;
15667;SDS011;7934;48.710;9.024;2023-04-06T20:44:25;6.85;;;6.22;;
15667;SDS011;7934;48.710;9.024;2023-04-06T20:46:52;7.72;;;6.93;;
15667;SDS011;7934;48.710;9.024;2023-04-06T20:49:20;7.85;;;6.60;;
15667;SDS011;7934;48.710;9.024;2023-04-06T20:51:48;7.20;;;6.60;;
15667;SDS011;7934;48.710;9.024;2023-04-06T20:54:15;8.30;;;7.07;;
15667;SDS011;7934;48.710;9.024;2023-04-06T20:56:44;8.93;;;6.75;;
15667;SDS011;7934;48.710;9.024;2023-04-06T20:59:11;8.52;;;6.85;;
15667;SDS011;7934;48.710;9.024;2023-04-06T21:01:38;7.75;;;7.05;;
15667;SDS011;7934;48.710;9.024;2023-04-06T21:04:05;8.70;;;6.75;;
15667;SDS011;7934;48.710;9.024;2023-04-06T21:06:32;8.20;;;7.50;;
15667;SDS011;7934;48.710;9.024;2023-04-06T21:09:00;8.48;;;7.57;;
15667;SDS011;7934;48.710;9.024;2023-04-06T21:11:27;8.82;;;7.93;;
15667;SDS011;7934;48.710;9.024;2023-04-06T21:13:55;8.23;;;7.53;;
15667;SDS011;7934;48.710;9.024;2023-04-06T21:16:23;9.35;;;8.45;;
15667;SDS011;7934;48.710;9.024;2023-04-06T21:18:51;9.13;;;8.20;;
15667;SDS011;7934;48.710;9.024;2023-04-06T21:21:18;10.55;;;7.97;;
15667;SDS011;7934;48.710;9.024;2023-04-06T21:23:46;9.00;;;8.20;;
15667;SDS011;7934;48.710;9.024;2023-04-06T21:26:13;10.10;;;8.70;;
15667;SDS011;7934;48.710;9.024;2023-04-06T21:28:40;9.70;;;8.77;;
15667;SDS011;7934;48.710;9.024;2023-04-06T21:31:08;9.98;;;9.02;;
15667;SDS011;7934;48.710;9.024;2023-04-06T21:33:35;11.20;;;9.80;;
15667;SDS011;7934;48.710;9.024;2023-04-06T21:36:03;11.32;;;9.95;;
15667;SDS011;7934;48.710;9.024;2023-04-06T21:38:30;10.50;;;9.40;;
15667;SDS011;7934;48.710;9.024;2023-04-06T21:40:59;12.63;;;10.52;;
15667;SDS011;7934;48.710;9.024;2023-04-06T21:43:26;11.32;;;10.23;;
15667;SDS011;7934;48.710;9.024;2023-04-06T21:45:53;11.75;;;10.55;;
15667;SDS011;7934;48.710;9.024;2023-04-06T21:48:21;13.13;;;10.75;;
15667;SDS011;7934;48.710;9.024;2023-04-06T21:50:49;12.35;;;10.80;;
15667;SDS011;7934;48.710;9.024;2023-04-06T21:53:16;12.65;;;10.60;;
15667;SDS011;7934;48.710;9.024;2023-04-06T21:55:43;11.85;;;10.05;;
15667;SDS011;7934;48.710;9.024;2023-04-06T21:58:10;11.60;;;10.43;;
15667;SDS011;7934;48.710;9.024;2023-04-06T22:00:38;13.38;;;11.50;;
15667;SDS011;7934;48.710;9.024;2023-04-06T22:03:05;11.65;;;10.45;;
15667;SDS011;7934;48.710;9.024;2023-04-06T22:05:34;13.88;;;11.20;;
15667;SDS011;7934;48.710;9.024;2023-04-06T22:08:01;11.63;;;10.43;;
15667;SDS011;7934;48.710;9.024;2023-04-06T22:10:28;11.97;;;10.77;;
15667;SDS011;7934;48.710;9.024;2023-04-06T22:12:55;12.35;;;11.10;;
15667;SDS011;7934;48.710;9.024;2023-04-06T22:15:23;12.85;;;11.23;;
15667;SDS011;7934;48.710;9.024;2023-04-06T22:17:50;14.65;;;12.07;;
15667;SDS011;7934;48.710;9.024;2023-04-06T22:20:17;13.15;;;11.75;;
15667;SDS011;7934;48.710;9.024;2023-04-06T22:22:46;13.68;;;11.35;;
15667;SDS011;7934;48.710;9.024;2023-04-06T22:25:13;13.40;;;11.80;;
15667;SDS011;7934;48.710;9.024;2023-04-06T22:27:40;13.52;;;11.90;;
15667;SDS011;7934;48.710;9.024;2023-04-06T22:30:07;13.35;;;11.90;;
15667;SDS011;7934;48.710;9.024;2023-04-06T22:32:35;13.55;;;12.15;;
15667;SDS011;7934;48.710;9.024;2023-04-06T22:35:02;13.35;;;12.05;;
15667;SDS011;7934;48.710;9.024;2023-04-06T22:37:29;14.02;;;12.40;;
15667;SDS011;7934;48.710;9.024;2023-04-06T22:39:58;13.57;;;11.97;;
15667;SDS011;7934;48.710;9.024;2023-04-06T22:42:27;15.65;;;12.48;;
15667;SDS011;7934;48.710;9.024;2023-04-06T22:44:54;15.75;;;12.55;;
15667;SDS011;7934;48.710;9.024;2023-04-06T22:47:21;15.20;;;12.30;;
15667;SDS011;7934;48.710;9.024;2023-04-06T22:49:49;15.35;;;11.80;;
15667;SDS011;7934;48.710;9.024;2023-04-06T22:52:16;14.18;;;11.73;;
15667;SDS011;7934;48.710;9.024;2023-04-06T22:54:43;15.13;;;11.90;;
15667;SDS011;7934;48.710;9.024;2023-04-06T22:57:12;14.43;;;12.23;;
15667;SDS011;7934;48.710;9.024;2023-04-06T22:59:39;18.10;;;12.93;;
15667;SDS011;7934;48.710;9.024;2023-04-06T23:02:06;15.55;;;12.50;;
15667;SDS011;7934;48.710;9.024;2023-04-06T23:04:33;14.65;;;11.88;;
15667;SDS011;7934;48.710;9.024;2023-04-06T23:07:00;13.27;;;11.50;;
15667;SDS011;7934;48.710;9.024;2023-04-06T23:09:27;15.23;;;11.80;;
15667;SDS011;7934;48.710;9.024;2023-04-06T23:11:54;15.10;;;11.95;;
15667;SDS011;7934;48.710;9.024;2023-04-06T23:14:23;13.70;;;12.27;;
15667;SDS011;7934;48.710;9.024;2023-04-06T23:16:50;14.57;;;12.20;;
15667;SDS011;7934;48.710;9.024;2023-04-06T23:19:17;14.77;;;12.55;;
15667;SDS011;7934;48.710;9.024;2023-04-06T23:21:44;14.85;;;12.65;;
15667;SDS011;7934;48.710;9.024;2023-04-06T23:24:11;12.85;;;11.18;;
15667;SDS011;7934;48.710;9.024;2023-04-06T23:26:38;12.57;;;11.35;;
15667;SDS011;7934;48.710;9.024;2023-04-06T23:29:05;13.47;;;11.27;;
15667;SDS011;7934;48.710;9.024;2023-04-06T23:31:34;13.00;;;10.63;;
15667;SDS011;7934;48.710;9.024;2023-04-06T23:34:01;13.37;;;11.47;;
15667;SDS011;7934;48.710;9.024;2023-04-06T23:36:28;14.73;;;11.73;;
15667;SDS011;7934;48.710;9.024;2023-04-06T23:38:56;16.17;;;11.82;;
15667;SDS011;7934;48.710;9.024;2023-04-06T23:41:24;14.40;;;11.95;;
15667;SDS011;7934;48.710;9.024;2023-04-06T23:43:51;16.67;;;12.15;;
15667;SDS011;7934;48.710;9.024;2023-04-06T23:46:19;15.03;;;11.50;;
15667;SDS011;7934;48.710;9.024;2023-04-06T23:48:48;16.13;;;12.13;;
15667;SDS011;7934;48.710;9.024;2023-04-06T23:51:15;13.30;;;11.90;;
15667;SDS011;7934;48.710;9.024;2023-04-06T23:53:42;14.45;;;11.52;;
15667;SDS011;7934;48.710;9.024;2023-04-06T23:56:10;13.70;;;11.32;;
15667;SDS011;7934;48.710;9.024;2023-04-06T23:58:37;12.70;;;11.40;;
